Time;durP1;ratioP1;P1;durP2;ratioP2;P2;SDS_P1;SDS_P2;PMS_P1;PMS_P2;Temp;Humidity;BMP_temperature;BMP_pressure;BME280_temperature;BME280_humidity;BME280_pressure;Samples;Min_cycle;Max_cycle;Signal;HPM_P1;HPM_P2
2021/01/31 00:01:24;;;;;;;9.83;7.27;;;;;;;-3.69;66.38;97685.32;2264752;78;21153;-82
2021/01/31 00:04:25;;;;;;;15.10;8.20;;;;;;;-3.68;66.24;97689.63;2260950;78;21161;-83
2021/01/31 00:07:28;;;;;;;22.13;10.90;;;;;;;-3.71;67.06;97693.30;2260207;79;21145;-82
2021/01/31 00:10:30;;;;;;;28.83;11.73;;;;;;;-3.68;67.16;97701.09;2260493;79;21141;-84
2021/01/31 00:13:32;;;;;;;22.07;9.93;;;;;;;-3.67;67.10;97704.13;2259992;79;21177;-81
2021/01/31 00:16:33;;;;;;;27.93;12.03;;;;;;;-3.65;66.89;97701.25;2259878;79;21145;-79
2021/01/31 00:19:36;;;;;;;28.27;11.60;;;;;;;-3.64;67.01;97704.67;2260466;79;21086;-80
2021/01/31 00:22:37;;;;;;;33.00;13.10;;;;;;;-3.60;67.42;97715.50;2260035;79;21415;-80
2021/01/31 00:25:41;;;;;;;23.60;11.33;;;;;;;-3.58;67.16;97707.52;2259706;79;21482;-79
2021/01/31 00:28:42;;;;;;;22.93;9.40;;;;;;;-3.55;67.25;97707.27;2259832;79;21416;-79
2021/01/31 00:31:43;;;;;;;19.07;9.90;;;;;;;-3.53;67.32;97707.34;2260215;79;21122;-81
2021/01/31 00:34:44;;;;;;;22.97;10.63;;;;;;;-3.53;66.97;97713.72;2259747;79;21157;-80
2021/01/31 00:37:45;;;;;;;24.67;13.20;;;;;;;-3.55;67.09;97718.75;2259971;79;21248;-79
2021/01/31 00:40:46;;;;;;;18.97;10.47;;;;;;;-3.55;66.55;97719.14;2259862;79;21102;-80
2021/01/31 00:43:47;;;;;;;17.43;9.47;;;;;;;-3.52;66.70;97723.12;2259712;79;21075;-81
2021/01/31 00:46:49;;;;;;;15.40;8.37;;;;;;;-3.54;66.14;97726.00;2259553;78;21094;-80
2021/01/31 00:49:50;;;;;;;20.00;9.77;;;;;;;-3.56;66.49;97725.92;2259741;79;21422;-80
2021/01/31 00:52:51;;;;;;;19.30;9.57;;;;;;;-3.52;66.92;97725.67;2260004;78;21299;-81
2021/01/31 00:55:57;;;;;;;20.43;9.00;;;;;;;-3.50;66.96;97723.19;2227780;79;22159;-80
2021/01/31 00:58:58;;;;;;;17.27;9.20;;;;;;;-3.46;67.23;97720.89;2259855;79;21130;-82
2021/01/31 01:01:59;;;;;;;19.30;8.73;;;;;;;-3.44;66.22;97720.56;2259934;79;21380;-79
2021/01/31 01:05:00;;;;;;;11.67;7.20;;;;;;;-3.41;66.20;97721.98;2263638;79;21652;-78
2021/01/31 01:08:04;;;;;;;12.93;7.40;;;;;;;-3.43;66.12;97723.99;2263837;78;21525;-78
2021/01/31 01:11:05;;;;;;;15.13;8.20;;;;;;;-3.42;66.35;97721.92;2264005;78;21271;-79
2021/01/31 01:14:06;;;;;;;17.43;8.43;;;;;;;-3.36;66.04;97724.76;2264012;78;21280;-79
2021/01/31 01:17:10;;;;;;;16.93;8.27;;;;;;;-3.36;65.91;97718.38;2263924;78;21256;-79
2021/01/31 01:20:11;;;;;;;19.07;8.73;;;;;;;-3.36;65.96;97726.91;2263994;79;21248;-81
2021/01/31 01:23:14;;;;;;;16.20;8.80;;;;;;;-3.39;65.56;97726.77;2264338;78;21153;-79
2021/01/31 01:26:15;;;;;;;22.13;8.73;;;;;;;-3.39;65.46;97726.77;2264130;78;21146;-79
2021/01/31 01:29:16;;;;;;;22.33;7.97;;;;;;;-3.44;65.60;97724.39;2263810;78;21387;-80
2021/01/31 01:32:17;;;;;;;22.47;9.70;;;;;;;-3.47;65.51;97724.22;2264201;78;21263;-79
2021/01/31 01:35:18;;;;;;;16.87;9.20;;;;;;;-3.50;65.28;97722.80;2264236;78;21572;-80
2021/01/31 01:38:20;;;;;;;18.37;8.00;;;;;;;-3.52;65.29;97722.72;2264195;78;21263;-82
2021/01/31 01:41:21;;;;;;;12.80;6.63;;;;;;;-3.54;65.04;97723.45;2264351;78;21199;-80
2021/01/31 01:44:22;;;;;;;10.33;5.67;;;;;;;-3.58;64.88;97721.15;2264315;78;21542;-81
2021/01/31 01:47:25;;;;;;;9.37;4.93;;;;;;;-3.62;65.10;97720.92;2264301;78;21268;-81
2021/01/31 01:50:26;;;;;;;10.17;5.20;;;;;;;-3.70;64.88;97722.23;2264666;79;21367;-82
2021/01/31 01:53:30;;;;;;;6.47;4.53;;;;;;;-3.74;65.27;97721.60;2264619;78;21255;-80
2021/01/31 01:56:31;;;;;;;7.17;4.57;;;;;;;-3.77;65.26;97727.42;2264200;78;21538;-79
2021/01/31 01:59:32;;;;;;;12.83;5.27;;;;;;;-3.78;65.56;97724.80;2264175;78;21141;-82
2021/01/31 02:02:33;;;;;;;10.00;6.20;;;;;;;-3.74;64.26;97725.03;2264181;78;21379;-80
2021/01/31 02:05:37;;;;;;;10.57;6.13;;;;;;;-3.73;65.45;97722.95;2259990;78;21401;-80
2021/01/31 02:08:38;;;;;;;10.40;6.30;;;;;;;-3.68;65.46;97729.55;2259855;79;21157;-79
2021/01/31 02:11:39;;;;;;;13.47;6.90;;;;;;;-3.66;65.72;97726.67;2260191;79;21161;-79
2021/01/31 02:14:41;;;;;;;12.37;7.10;;;;;;;-3.64;65.79;97728.50;2259948;79;21117;-81
2021/01/31 02:17:42;;;;;;;12.33;6.20;;;;;;;-3.62;65.59;97732.40;2259886;79;21115;-82
2021/01/31 02:20:43;;;;;;;12.47;7.03;;;;;;;-3.58;63.95;97732.63;2260171;79;21137;-83
2021/01/31 02:23:46;;;;;;;13.33;7.50;;;;;;;-3.59;64.60;97731.27;2260149;79;21124;-80
2021/01/31 02:26:47;;;;;;;19.07;8.13;;;;;;;-3.60;65.28;97726.58;2259851;79;21141;-81
2021/01/31 02:29:48;;;;;;;17.90;7.13;;;;;;;-3.57;65.33;97733.09;2259974;79;21118;-83
2021/01/31 02:32:49;;;;;;;22.30;9.00;;;;;;;-3.54;65.16;97733.25;2260124;77;21185;-82
2021/01/31 02:35:50;;;;;;;14.07;6.87;;;;;;;-3.52;65.10;97733.33;2259840;79;21161;-79
2021/01/31 02:38:52;;;;;;;16.27;6.53;;;;;;;-3.49;64.72;97737.70;2259841;79;21137;-80
2021/01/31 02:41:53;;;;;;;13.80;7.30;;;;;;;-3.52;64.87;97728.22;2259934;78;21129;-77
2021/01/31 02:44:54;;;;;;;12.43;6.50;;;;;;;-3.51;65.22;97736.34;2259767;79;21517;-78
2021/01/31 02:47:55;;;;;;;9.37;5.40;;;;;;;-3.53;65.11;97740.50;2259727;79;21129;-80
2021/01/31 02:50:56;;;;;;;12.50;6.93;;;;;;;-3.53;65.15;97740.50;2259609;79;21145;-78
2021/01/31 02:53:59;;;;;;;13.97;7.30;;;;;;;-3.50;65.33;97741.05;2259833;79;21275;-77
2021/01/31 02:57:01;;;;;;;10.13;6.30;;;;;;;-3.51;64.75;97742.72;2259599;78;21086;-78
2021/01/31 03:00:02;;;;;;;11.40;5.93;;;;;;;-3.51;65.08;97740.17;2259215;79;21109;-77
2021/01/31 03:03:03;;;;;;;10.90;6.23;;;;;;;-3.46;65.33;97743.86;2260378;79;21299;-80
2021/01/31 03:06:04;;;;;;;9.77;5.17;;;;;;;-3.43;65.22;97751.66;2266876;78;21141;-78
2021/01/31 03:09:05;;;;;;;10.10;5.23;;;;;;;-3.44;65.17;97752.86;2267023;78;21117;-80
2021/01/31 03:12:06;;;;;;;8.83;5.07;;;;;;;-3.47;64.95;97754.83;2267547;79;21241;-79
2021/01/31 03:15:08;;;;;;;14.10;6.77;;;;;;;-3.51;65.11;97758.03;2266923;78;21763;-79
2021/01/31 03:18:09;;;;;;;13.17;6.43;;;;;;;-3.54;65.22;97760.03;2266815;78;21133;-78
2021/01/31 03:21:10;;;;;;;13.37;6.93;;;;;;;-3.53;65.28;97753.25;2267346;78;21086;-80
2021/01/31 03:24:11;;;;;;;12.53;6.77;;;;;;;-3.57;65.49;97755.19;2266908;79;21141;-79
2021/01/31 03:27:12;;;;;;;13.17;6.17;;;;;;;-3.62;65.33;97750.25;2266835;78;21141;-78
2021/01/31 03:30:13;;;;;;;12.83;7.20;;;;;;;-3.65;65.19;97747.55;2267035;78;21406;-79
2021/01/31 03:33:14;;;;;;;10.87;6.03;;;;;;;-3.73;65.29;97753.95;2266987;78;21454;-80
2021/01/31 03:36:15;;;;;;;12.53;6.33;;;;;;;-3.76;65.53;97751.25;2266839;78;21211;-80
2021/01/31 03:39:16;;;;;;;9.83;6.13;;;;;;;-3.71;65.70;97753.63;2266562;78;21137;-80
2021/01/31 03:42:17;;;;;;;13.47;5.80;;;;;;;-3.68;65.96;97754.66;2266706;78;21438;-82
2021/01/31 03:45:18;;;;;;;9.77;6.53;;;;;;;-3.68;66.18;97761.43;2266131;78;21149;-80
2021/01/31 03:48:19;;;;;;;10.53;5.83;;;;;;;-3.68;65.91;97765.26;2266405;78;21117;-78
2021/01/31 03:51:20;;;;;;;13.70;6.67;;;;;;;-3.70;65.93;97763.91;2266274;78;21348;-79
2021/01/31 03:54:22;;;;;;;11.83;6.43;;;;;;;-3.74;65.90;97772.20;2266012;78;21165;-79
2021/01/31 03:57:23;;;;;;;12.27;6.03;;;;;;;-3.76;65.98;97784.40;2266433;78;21126;-79
2021/01/31 04:00:24;;;;;;;8.23;5.87;;;;;;;-3.90;65.85;97783.70;2267272;78;21123;-79
2021/01/31 04:03:25;;;;;;;11.20;5.63;;;;;;;-4.04;66.10;97780.86;2265652;78;21161;-79
2021/01/31 04:06:27;;;;;;;12.30;5.77;;;;;;;-4.10;66.34;97777.59;2259640;79;21094;-80
2021/01/31 04:09:27;;;;;;;12.33;6.20;;;;;;;-4.21;66.49;97785.97;2259679;79;21184;-79
2021/01/31 04:12:29;;;;;;;10.93;5.90;;;;;;;-4.31;66.56;97790.50;2259456;79;21169;-79
2021/01/31 04:15:30;;;;;;;11.13;6.50;;;;;;;-4.44;66.41;97791.50;2259488;79;21125;-79
2021/01/31 04:18:31;;;;;;;11.00;6.57;;;;;;;-4.61;66.35;97794.42;2259966;79;21129;-81
2021/01/31 04:21:32;;;;;;;13.83;6.60;;;;;;;-4.70;66.42;97797.75;2258875;79;21407;-80
2021/01/31 04:24:33;;;;;;;12.93;6.13;;;;;;;-4.81;66.50;97796.30;2258566;79;21102;-79
2021/01/31 04:27:34;;;;;;;12.70;6.77;;;;;;;-4.98;66.26;97804.68;2258776;79;21121;-79
2021/01/31 04:30:35;;;;;;;11.63;6.70;;;;;;;-5.17;66.29;97809.14;2259027;78;21126;-81
2021/01/31 04:33:36;;;;;;;11.63;6.53;;;;;;;-5.33;66.30;97810.31;2259493;79;21431;-79
2021/01/31 04:36:37;;;;;;;11.67;6.43;;;;;;;-5.47;66.51;97814.63;2259736;79;21368;-79
2021/01/31 04:39:38;;;;;;;11.07;6.33;;;;;;;-5.62;66.44;97818.44;2259921;78;21126;-79
2021/01/31 04:42:39;;;;;;;11.70;5.90;;;;;;;-5.80;66.98;97813.55;2259598;78;21372;-81
2021/01/31 04:45:40;;;;;;;12.30;6.03;;;;;;;-5.86;66.91;97820.83;2260002;79;21126;-79
2021/01/31 04:48:41;;;;;;;10.63;5.77;;;;;;;-6.04;66.54;97833.36;2259978;79;21129;-81
2021/01/31 04:51:42;;;;;;;9.20;5.77;;;;;;;-6.21;67.03;97831.44;2260038;79;21102;-82
2021/01/31 04:54:44;;;;;;;8.93;5.67;;;;;;;-6.35;66.58;97834.81;2259043;79;21185;-80
2021/01/31 04:57:45;;;;;;;8.50;5.27;;;;;;;-6.53;66.72;97839.64;2258905;79;21133;-79
2021/01/31 05:00:46;;;;;;;11.93;5.90;;;;;;;-6.70;66.59;97846.61;2259284;79;21428;-79
2021/01/31 05:03:47;;;;;;;9.73;5.93;;;;;;;-6.85;66.80;97845.27;2259059;79;21431;-80
2021/01/31 05:06:48;;;;;;;20.47;7.37;;;;;;;-6.96;67.15;97846.22;2259363;79;21122;-80
2021/01/31 05:09:49;;;;;;;18.53;7.77;;;;;;;-7.07;66.91;97854.03;2259187;79;21122;-79
2021/01/31 05:12:50;;;;;;;11.77;7.07;;;;;;;-7.18;66.96;97852.47;2258696;79;21185;-79
2021/01/31 05:15:51;;;;;;;15.77;7.77;;;;;;;-7.33;67.08;97853.14;2258558;79;21418;-79
2021/01/31 05:18:52;;;;;;;18.40;9.23;;;;;;;-7.46;66.75;97856.54;2258930;79;21086;-78
2021/01/31 05:21:53;;;;;;;17.37;9.17;;;;;;;-7.61;66.77;97858.07;2259122;79;21411;-79
2021/01/31 05:24:54;;;;;;;16.10;8.80;;;;;;;-7.72;66.83;97872.56;2258891;79;21232;-78
2021/01/31 05:27:55;;;;;;;17.17;9.90;;;;;;;-7.83;66.61;97875.62;2258854;79;21125;-81
2021/01/31 05:30:56;;;;;;;23.33;12.67;;;;;;;-7.97;66.35;97879.27;2258529;79;21122;-79
2021/01/31 05:33:57;;;;;;;28.97;13.10;;;;;;;-8.12;66.57;97885.06;2258213;79;21196;-79
2021/01/31 05:36:58;;;;;;;34.70;16.20;;;;;;;-8.21;66.78;97894.94;2258217;79;21130;-80
2021/01/31 05:39:59;;;;;;;47.77;19.73;;;;;;;-8.29;66.60;97896.07;2258708;79;21121;-78
2021/01/31 05:43:00;;;;;;;42.40;18.33;;;;;;;-8.41;66.48;97896.14;2259701;79;21160;-79
2021/01/31 05:46:02;;;;;;;28.70;14.87;;;;;;;-8.52;66.56;97900.45;2259644;79;21142;-81
2021/01/31 05:49:03;;;;;;;35.80;14.27;;;;;;;-8.61;66.22;97904.87;2259554;79;21396;-82
2021/01/31 05:52:04;;;;;;;35.83;15.17;;;;;;;-8.77;65.95;97913.39;2259208;79;21110;-81
2021/01/31 05:55:05;;;;;;;38.13;15.53;;;;;;;-8.94;65.80;97917.63;2259204;79;21129;-81
2021/01/31 05:58:06;;;;;;;40.23;15.43;;;;;;;-9.00;66.00;97915.16;2258828;79;21090;-80
2021/01/31 06:01:07;;;;;;;42.70;16.43;;;;;;;-9.04;66.24;97916.97;2259379;79;21094;-77
2021/01/31 06:04:08;;;;;;;37.37;14.83;;;;;;;-9.04;66.54;97918.63;2260170;79;21142;-77
2021/01/31 06:07:09;;;;;;;18.03;9.87;;;;;;;-9.07;66.62;97929.78;2266128;79;21133;-79
2021/01/31 06:10:11;;;;;;;20.20;9.90;;;;;;;-9.10;66.88;97938.41;2267261;79;21423;-77
2021/01/31 06:13:12;;;;;;;22.10;9.73;;;;;;;-9.12;66.92;97938.67;2265703;78;21133;-77
2021/01/31 06:16:13;;;;;;;22.57;11.90;;;;;;;-9.16;66.28;97942.63;2266094;78;21133;-78
2021/01/31 06:19:14;;;;;;;24.47;11.03;;;;;;;-9.20;66.41;97944.82;2266207;79;21113;-78
2021/01/31 06:22:15;;;;;;;31.23;12.40;;;;;;;-9.23;66.46;97944.60;2266600;79;21133;-81
2021/01/31 06:25:16;;;;;;;22.07;10.90;;;;;;;-9.30;66.22;97949.59;2265714;79;21106;-81
2021/01/31 06:28:17;;;;;;;22.40;11.00;;;;;;;-9.40;65.63;97958.52;2265557;79;21149;-80
2021/01/31 06:31:18;;;;;;;18.37;10.20;;;;;;;-9.45;65.92;97962.36;2265628;78;21118;-80
2021/01/31 06:34:19;;;;;;;19.10;10.93;;;;;;;-9.40;66.31;97963.20;2266021;79;21307;-78
2021/01/31 06:37:21;;;;;;;21.40;10.17;;;;;;;-9.31;66.47;97965.52;2265856;79;21097;-78
2021/01/31 06:40:22;;;;;;;20.17;10.43;;;;;;;-9.22;66.39;97964.93;2267151;79;21280;-77
2021/01/31 06:43:23;;;;;;;27.50;13.30;;;;;;;-9.20;66.06;97973.89;2267248;79;21391;-79
2021/01/31 06:46:24;;;;;;;41.47;21.13;;;;;;;-9.19;65.87;97975.27;2267353;79;21118;-79
2021/01/31 06:49:25;;;;;;;45.07;22.97;;;;;;;-9.21;65.66;97978.06;2267086;79;21507;-78
2021/01/31 06:52:26;;;;;;;43.83;22.20;;;;;;;-9.17;65.95;97970.33;2266887;79;21173;-78
2021/01/31 06:55:27;;;;;;;48.27;24.00;;;;;;;-9.15;65.88;97972.20;2266954;79;21117;-79
2021/01/31 06:58:30;;;;;;;70.47;37.83;;;;;;;-9.07;65.86;97972.76;2267268;79;21404;-79
2021/01/31 07:01:31;;;;;;;48.53;26.47;;;;;;;-3.83;88.09;97964.25;2267214;79;21348;-76
2021/01/31 07:04:33;;;;;;;39.03;21.20;;;;;;;0.54;88.89;97948.72;2265436;79;21133;-77
2021/01/31 07:07:34;;;;;;;36.73;21.47;;;;;;;-1.39;74.39;97950.30;2264049;79;21391;-77
2021/01/31 07:10:35;;;;;;;38.50;23.07;;;;;;;-3.23;64.05;97958.07;2264085;79;21507;-77
2021/01/31 07:13:36;;;;;;;36.50;21.63;;;;;;;-4.41;62.21;97970.38;2263931;79;21283;-77
2021/01/31 07:16:37;;;;;;;37.50;19.70;;;;;;;-5.19;61.53;97971.89;2263771;79;21144;-78
2021/01/31 07:19:38;;;;;;;40.70;20.17;;;;;;;-5.72;61.37;97982.65;2263924;79;21232;-77
2021/01/31 07:22:40;;;;;;;40.03;19.57;;;;;;;-6.01;61.53;97980.03;2263932;79;21228;-77
2021/01/31 07:25:41;;;;;;;41.13;21.13;;;;;;;-6.18;61.60;97981.48;2263123;79;21252;-79
2021/01/31 07:28:42;;;;;;;40.43;20.60;;;;;;;-6.23;61.84;97987.95;2264163;79;21141;-78
2021/01/31 07:31:43;;;;;;;33.80;18.67;;;;;;;-6.20;61.88;97995.37;2263429;79;21153;-78
2021/01/31 07:34:46;;;;;;;41.37;18.87;;;;;;;-6.15;62.42;97993.11;2262896;79;21275;-78
2021/01/31 07:37:47;;;;;;;36.07;18.43;;;;;;;-6.06;62.22;97986.48;2263369;79;21279;-76
2021/01/31 07:40:48;;;;;;;133.60;69.43;;;;;;;-5.94;62.73;97991.05;2263395;79;21240;-81
2021/01/31 07:43:49;;;;;;;45.97;23.23;;;;;;;-3.74;85.29;97981.72;2263687;79;21145;-77
2021/01/31 07:46:51;;;;;;;34.43;18.53;;;;;;;0.75;78.15;97975.18;2263236;79;21260;-76
2021/01/31 07:49:52;;;;;;;35.70;18.27;;;;;;;-0.19;61.58;97978.84;2263217;79;21726;-76
2021/01/31 07:52:53;;;;;;;36.23;18.30;;;;;;;-1.32;59.37;97990.72;2263197;79;21434;-77
2021/01/31 07:55:55;;;;;;;35.60;18.43;;;;;;;-2.08;58.73;97998.70;2263265;79;21235;-78
2021/01/31 07:58:56;;;;;;;30.03;17.23;;;;;;;-2.55;58.92;97999.38;2262946;79;21256;-76
2021/01/31 08:01:57;;;;;;;34.43;18.37;;;;;;;-2.81;59.03;98000.20;2263278;79;21260;-77
2021/01/31 08:04:58;;;;;;;33.87;18.10;;;;;;;-2.99;59.02;98006.55;2260798;79;21279;-77
2021/01/31 08:07:59;;;;;;;41.07;21.77;;;;;;;-3.14;58.96;98008.31;2258318;79;21129;-76
2021/01/31 08:11:00;;;;;;;45.33;24.07;;;;;;;-3.24;59.13;98010.79;2258442;79;21098;-77
2021/01/31 08:14:01;;;;;;;48.80;24.67;;;;;;;-3.28;59.32;98006.72;2258705;79;21165;-78
2021/01/31 08:17:03;;;;;;;53.23;26.47;;;;;;;-3.25;59.31;98008.16;2259184;79;21089;-77
2021/01/31 08:20:04;;;;;;;44.70;25.07;;;;;;;-3.24;59.49;98003.53;2259175;79;21416;-76
2021/01/31 08:23:05;;;;;;;44.60;23.60;;;;;;;-3.14;59.60;98005.76;2258823;79;21125;-76
2021/01/31 08:26:06;;;;;;;47.33;23.53;;;;;;;-3.04;59.36;98013.09;2259038;79;21376;-77
2021/01/31 08:29:07;;;;;;;49.23;25.00;;;;;;;-2.91;59.42;98009.48;2259303;79;21138;-78
2021/01/31 08:32:08;;;;;;;43.70;22.57;;;;;;;-2.73;59.51;98010.80;2258591;79;21125;-77
2021/01/31 08:35:10;;;;;;;44.40;21.07;;;;;;;-2.53;59.33;98015.26;2258145;79;21122;-79
2021/01/31 08:38:11;;;;;;;48.27;21.80;;;;;;;-2.41;59.02;98015.86;2259099;79;21134;-77
2021/01/31 08:41:12;;;;;;;41.57;23.80;;;;;;;-2.30;58.96;98020.20;2258404;79;21125;-79
2021/01/31 08:44:13;;;;;;;51.37;25.40;;;;;;;-2.22;58.64;98011.63;2259121;79;21121;-77
2021/01/31 08:47:14;;;;;;;55.90;27.27;;;;;;;-2.08;58.85;98016.60;2259295;79;21126;-76
2021/01/31 08:50:15;;;;;;;58.33;28.17;;;;;;;-1.85;58.79;98010.41;2259540;79;21126;-79
2021/01/31 08:53:18;;;;;;;66.90;31.37;;;;;;;-1.69;58.33;98014.18;2259400;79;21161;-78
2021/01/31 08:56:23;;;;;;;69.10;31.77;;;;;;;-1.72;58.15;98012.36;2259743;79;21141;-77
2021/01/31 08:59:24;;;;;;;79.25;33.70;;;;;;;-1.71;57.75;98002.59;2259440;79;21113;-77
2021/01/31 09:02:25;;;;;;;74.73;36.10;;;;;;;-1.75;57.91;98008.34;2259733;79;21400;-76
2021/01/31 09:05:26;;;;;;;83.67;38.60;;;;;;;-1.66;58.16;98019.03;2250178;78;21162;-77
2021/01/31 09:08:27;;;;;;;87.83;40.13;;;;;;;-1.67;57.13;98016.00;2237908;80;21137;-76
2021/01/31 09:11:28;;;;;;;102.50;50.50;;;;;;;-1.64;58.06;98025.51;2237018;80;21134;-75
2021/01/31 09:14:30;;;;;;;103.20;49.30;;;;;;;2.08;85.08;98019.63;2237045;80;21158;-76
2021/01/31 09:17:31;;;;;;;80.57;38.77;;;;;;;4.84;61.62;98007.66;2237885;80;21130;-76
2021/01/31 09:20:32;;;;;;;87.90;42.00;;;;;;;3.68;54.63;98012.27;2237967;80;21407;-76
2021/01/31 09:23:33;;;;;;;79.20;39.23;;;;;;;2.56;53.43;98012.11;2237866;80;21090;-76
2021/01/31 09:26:34;;;;;;;65.33;34.17;;;;;;;1.59;52.92;98011.14;2236820;80;21404;-76
2021/01/31 09:29:35;;;;;;;93.80;45.33;;;;;;;1.06;52.67;98016.14;2237488;80;21134;-76
2021/01/31 09:32:36;;;;;;;67.10;33.97;;;;;;;0.62;53.56;98017.93;2237936;80;21154;-76
2021/01/31 09:35:40;;;;;;;76.23;37.60;;;;;;;0.46;54.08;98008.78;2237579;80;21145;-76
2021/01/31 09:38:42;;;;;;;88.30;40.20;;;;;;;0.27;53.69;98020.45;2237919;80;21126;-77
2021/01/31 09:41:45;;;;;;;59.80;30.87;;;;;;;0.11;54.10;98019.38;2238212;80;21427;-77
2021/01/31 09:44:46;;;;;;;62.07;31.43;;;;;;;0.14;54.46;98014.38;2238102;80;21160;-76
2021/01/31 09:47:49;;;;;;;50.07;24.43;;;;;;;0.24;54.56;98022.90;2238151;80;21090;-77
2021/01/31 09:50:51;;;;;;;138.60;64.53;;;;;;;0.33;54.68;98020.69;2237875;80;21150;-77
2021/01/31 09:53:52;;;;;;;61.10;31.97;;;;;;;4.83;74.83;98006.78;2237840;80;21161;-77
2021/01/31 09:56:55;;;;;;;48.40;25.63;;;;;;;5.36;54.69;98001.83;2237837;80;21146;-76
2021/01/31 09:59:57;;;;;;;45.90;24.80;;;;;;;4.12;51.67;98014.64;2237874;80;21130;-76
2021/01/31 10:02:58;;;;;;;45.23;24.00;;;;;;;3.16;51.04;98013.85;2237679;80;21396;-75
2021/01/31 10:06:00;;;;;;;38.13;23.57;;;;;;;2.49;51.22;98019.20;2236920;80;21865;-76
2021/01/31 10:09:01;;;;;;;52.17;26.47;;;;;;;2.06;51.79;98018.70;2237320;80;21114;-76
2021/01/31 10:12:02;;;;;;;57.53;30.33;;;;;;;1.80;52.26;98020.02;2237987;80;21095;-76
2021/01/31 10:15:03;;;;;;;58.60;30.43;;;;;;;1.65;52.07;98019.89;2237744;80;21186;-76
2021/01/31 10:18:04;;;;;;;61.17;30.07;;;;;;;1.46;52.28;98023.12;2238465;80;21095;-76
2021/01/31 10:21:05;;;;;;;39.27;21.30;;;;;;;1.42;52.53;98020.41;2238148;80;21740;-77
2021/01/31 10:24:06;;;;;;;36.23;19.87;;;;;;;1.41;52.71;98025.08;2237958;80;21144;-75
2021/01/31 10:27:07;;;;;;;36.23;18.97;;;;;;;1.38;52.65;98023.28;2237626;80;21119;-75
2021/01/31 10:30:08;;;;;;;31.83;18.70;;;;;;;1.34;52.59;98026.56;2238296;80;21435;-76
2021/01/31 10:33:10;;;;;;;32.17;18.33;;;;;;;1.30;52.50;98022.55;2237215;80;21161;-75
2021/01/31 10:36:11;;;;;;;37.90;18.97;;;;;;;1.09;51.51;98023.95;2237182;79;21285;-76
2021/01/31 10:39:12;;;;;;;29.80;18.03;;;;;;;1.03;52.56;98020.76;2237347;80;21107;-75
2021/01/31 10:42:13;;;;;;;37.13;18.47;;;;;;;1.20;52.66;98018.78;2237716;79;21404;-77
2021/01/31 10:45:14;;;;;;;24.03;14.33;;;;;;;1.35;52.65;98023.58;2237553;79;21142;-76
2021/01/31 10:48:15;;;;;;;29.87;11.87;;;;;;;1.49;52.42;98016.80;2237921;79;21126;-76
2021/01/31 10:51:18;;;;;;;25.70;14.03;;;;;;;1.43;51.32;98012.73;2237823;79;21127;-78
2021/01/31 10:54:19;;;;;;;25.97;16.47;;;;;;;1.34;51.79;98014.13;2237763;80;21186;-76
2021/01/31 10:57:20;;;;;;;28.73;17.13;;;;;;;1.41;52.27;98020.81;2237702;79;21134;-77
2021/01/31 11:00:22;;;;;;;28.53;17.03;;;;;;;1.56;52.45;98020.45;2238067;79;21161;-78
2021/01/31 11:03:23;;;;;;;32.27;19.67;;;;;;;1.57;51.93;98017.94;2237640;80;21465;-78
2021/01/31 11:06:24;;;;;;;60.07;35.07;;;;;;;3.47;77.24;98022.91;2236690;79;21170;-77
2021/01/31 11:09:25;;;;;;;27.07;15.43;;;;;;;7.55;41.51;97992.57;2237438;80;21416;-77
2021/01/31 11:12:26;;;;;;;17.37;10.10;;;;;;;7.55;41.51;97992.57;2237970;80;21126;-76
2021/01/31 11:15:27;;;;;;;13.50;9.87;;;;;;;5.37;43.23;97999.27;2237423;80;21495;-76
2021/01/31 11:18:28;;;;;;;16.30;10.23;;;;;;;3.95;45.60;98004.75;2237867;79;21125;-76
2021/01/31 11:21:29;;;;;;;14.50;8.87;;;;;;;3.27;45.90;98007.70;2237949;80;21102;-76
2021/01/31 11:24:30;;;;;;;17.70;9.10;;;;;;;2.81;46.61;98006.00;2238174;80;21134;-76
2021/01/31 11:27:32;;;;;;;17.00;9.30;;;;;;;2.29;47.34;98011.28;2238291;79;21138;-76
2021/01/31 11:30:33;;;;;;;11.90;8.53;;;;;;;1.96;48.03;98011.51;2238332;79;21139;-77
2021/01/31 11:33:34;;;;;;;19.57;11.37;;;;;;;1.78;48.24;98006.23;2237696;79;21813;-76
2021/01/31 11:36:35;;;;;;;17.17;8.70;;;;;;;1.64;48.76;98010.02;2238047;80;21158;-76
2021/01/31 11:39:36;;;;;;;21.63;12.37;;;;;;;1.53;47.94;98019.94;2237792;79;21150;-77
2021/01/31 11:42:37;;;;;;;11.93;6.43;;;;;;;1.31;49.08;98014.02;2237962;80;21539;-76
2021/01/31 11:45:38;;;;;;;16.23;6.63;;;;;;;0.99;47.50;98011.60;2237926;79;21090;-77
2021/01/31 11:48:39;;;;;;;11.20;6.10;;;;;;;0.66;48.85;98012.50;2237695;79;21122;-77
2021/01/31 11:51:40;;;;;;;8.87;5.87;;;;;;;0.66;49.78;98017.64;2238081;79;21134;-77
2021/01/31 11:54:41;;;;;;;9.30;5.97;;;;;;;0.68;49.15;98014.30;2238169;80;21177;-77
2021/01/31 11:57:42;;;;;;;7.30;5.13;;;;;;;0.54;49.42;98009.94;2237930;79;21095;-77
2021/01/31 12:00:44;;;;;;;9.80;6.80;;;;;;;0.36;48.44;98004.11;2237820;79;21147;-77
2021/01/31 12:03:48;;;;;;;60.87;35.67;;;;;;;0.18;49.67;98000.84;2238233;79;21115;-75
2021/01/31 12:06:51;;;;;;;33.73;20.83;;;;;;;3.58;77.16;98005.12;2238254;80;21178;-78
2021/01/31 12:09:52;;;;;;;19.43;12.30;;;;;;;6.11;51.96;97974.70;2238225;80;21126;-78
2021/01/31 12:12:54;;;;;;;10.23;6.90;;;;;;;4.69;46.02;97974.59;2238569;80;21277;-78
2021/01/31 12:15:57;;;;;;;13.47;8.50;;;;;;;3.06;45.29;97982.20;2238469;79;21221;-78
2021/01/31 12:18:59;;;;;;;15.57;7.50;;;;;;;2.00;45.76;97982.47;2238653;80;21533;-77
2021/01/31 12:22:00;;;;;;;12.17;7.80;;;;;;;1.41;47.56;97977.51;2238376;79;21118;-77
2021/01/31 12:25:02;;;;;;;16.70;8.93;;;;;;;0.98;47.42;97988.01;2238240;79;21126;-77
2021/01/31 12:28:03;;;;;;;16.27;8.97;;;;;;;0.60;49.04;97984.90;2238129;80;21229;-77
2021/01/31 12:31:04;;;;;;;16.13;9.50;;;;;;;0.60;49.23;97984.48;2238116;79;21426;-78
2021/01/31 12:34:05;;;;;;;14.50;9.40;;;;;;;0.47;48.88;97984.85;2238668;79;21280;-79
2021/01/31 12:37:06;;;;;;;21.27;9.37;;;;;;;0.30;49.40;97978.21;2238231;79;21150;-78
2021/01/31 12:40:08;;;;;;;13.40;9.00;;;;;;;0.29;49.54;97976.46;2238358;79;21095;-79
2021/01/31 12:43:09;;;;;;;22.73;11.83;;;;;;;0.28;49.53;97972.14;2238325;79;21110;-79
2021/01/31 12:46:10;;;;;;;12.20;7.40;;;;;;;0.26;49.92;97975.06;2238504;80;21257;-79
2021/01/31 12:49:14;;;;;;;13.40;8.57;;;;;;;0.13;49.29;97978.85;2238602;79;21241;-80
2021/01/31 12:52:15;;;;;;;18.83;10.53;;;;;;;-0.05;49.74;97975.13;2238896;79;21519;-80
2021/01/31 12:55:16;;;;;;;14.07;9.23;;;;;;;-0.15;50.33;97973.02;2237902;80;21122;-79
2021/01/31 12:58:17;;;;;;;16.43;9.53;;;;;;;-0.18;50.17;97969.05;2238477;79;21134;-78
2021/01/31 13:01:18;;;;;;;16.87;10.13;;;;;;;-0.21;50.87;97979.59;2238649;79;21285;-81
2021/01/31 13:04:19;;;;;;;19.33;11.23;;;;;;;-0.26;50.70;97979.41;2238214;80;21122;-79
2021/01/31 13:07:20;;;;;;;16.73;8.90;;;;;;;-0.26;51.07;97979.82;2238173;80;21157;-77
2021/01/31 13:10:22;;;;;;;16.50;10.13;;;;;;;-0.20;51.49;97974.53;2238174;80;21102;-78
2021/01/31 13:13:24;;;;;;;18.80;9.07;;;;;;;-0.15;51.66;97968.30;2238208;80;21189;-78
2021/01/31 13:16:25;;;;;;;15.93;9.83;;;;;;;-0.03;51.79;97977.76;2238354;79;21444;-77
2021/01/31 13:19:29;;;;;;;15.33;8.87;;;;;;;-0.07;51.22;97971.63;2238287;79;21126;-81
2021/01/31 13:22:30;;;;;;;17.87;9.37;;;;;;;-0.18;51.50;97970.74;2238482;80;21138;-79
2021/01/31 13:25:33;;;;;;;17.03;8.47;;;;;;;-0.24;51.87;97971.38;2237893;79;21427;-78
2021/01/31 13:28:34;;;;;;;18.63;10.80;;;;;;;-0.18;51.75;97975.88;2237963;80;21249;-78
2021/01/31 13:31:35;;;;;;;15.10;9.33;;;;;;;-0.24;51.85;97971.38;2238055;80;21146;-78
2021/01/31 13:34:36;;;;;;;29.70;13.37;;;;;;;-0.30;51.85;97972.41;2238300;79;21232;-77
2021/01/31 13:37:40;;;;;;;75.27;40.27;;;;;;;0.03;72.80;97977.16;2237921;80;21444;-77
2021/01/31 13:40:42;;;;;;;45.20;26.80;;;;;;;5.27;79.32;97957.67;2238396;79;21229;-78
2021/01/31 13:43:43;;;;;;;27.87;16.97;;;;;;;9.18;61.95;97937.83;2238663;80;21273;-79
2021/01/31 13:46:44;;;;;;;20.73;10.47;;;;;;;8.40;45.48;97944.38;2238571;80;21551;-78
2021/01/31 13:49:45;;;;;;;13.47;8.43;;;;;;;6.12;44.12;97950.11;2238494;80;21276;-77
2021/01/31 13:52:46;;;;;;;13.70;7.63;;;;;;;4.56;44.50;97956.67;2238533;79;21390;-77
2021/01/31 13:55:47;;;;;;;18.13;10.03;;;;;;;3.45;45.26;97963.03;2238702;79;21256;-78
2021/01/31 13:58:48;;;;;;;14.40;8.53;;;;;;;2.66;45.91;97963.45;2238546;80;21110;-76
2021/01/31 14:01:49;;;;;;;15.17;8.47;;;;;;;1.93;46.99;97971.52;2238698;79;21256;-76